createdAt,value
2023-02-23T00:02:20.968Z,68.87
2023-02-23T00:04:49.131Z,68.69
2023-02-23T00:07:20.151Z,68.75
2023-02-23T00:09:48.565Z,69.26
2023-02-23T00:12:17.476Z,68.72
2023-02-23T00:14:46.277Z,69.31
2023-02-23T00:17:15.252Z,69.34
2023-02-23T00:19:44.363Z,69.07
2023-02-23T00:22:12.940Z,69.20
2023-02-23T00:24:43.048Z,69.25
2023-02-23T00:27:18.647Z,69.61
2023-02-23T00:29:49.776Z,69.41
2023-02-23T00:32:22.365Z,69.38
2023-02-23T00:34:52.602Z,69.61
2023-02-23T00:37:23.182Z,69.76
2023-02-23T00:39:53.058Z,69.64
2023-02-23T00:42:21.210Z,69.38
2023-02-23T00:44:50.413Z,69.80
2023-02-23T00:47:18.796Z,69.63
2023-02-23T00:49:47.176Z,69.60
2023-02-23T00:52:15.267Z,70.01
2023-02-23T00:54:43.541Z,70.64
2023-02-23T00:57:11.765Z,70.56
2023-02-23T00:59:40.264Z,70.69
2023-02-23T01:02:08.582Z,70.21
2023-02-23T01:04:36.731Z,70.31
2023-02-23T01:07:06.749Z,70.06
2023-02-23T01:09:35.420Z,70.22
2023-02-23T01:12:07.767Z,70.37
2023-02-23T01:14:38.198Z,70.49
2023-02-23T01:17:07.720Z,70.90
2023-02-23T01:19:38.358Z,70.33
2023-02-23T01:22:06.632Z,70.56
2023-02-23T01:24:34.806Z,70.17
2023-02-23T01:27:05.792Z,70.28
2023-02-23T01:29:35.641Z,70.46
2023-02-23T01:32:05.044Z,70.47
2023-02-23T01:34:33.556Z,70.68
2023-02-23T01:37:01.777Z,70.99
2023-02-23T01:39:33.277Z,70.61
2023-02-23T01:42:01.648Z,70.80
2023-02-23T01:44:32.802Z,70.95
2023-02-23T01:47:00.961Z,71.22
2023-02-23T01:49:34.646Z,71.59
2023-02-23T01:52:08.046Z,71.76
2023-02-23T01:54:44.541Z,71.85
2023-02-23T01:57:15.080Z,71.73
2023-02-23T01:59:46.026Z,71.73
2023-02-23T02:02:16.219Z,71.67
2023-02-23T02:04:45.054Z,71.64
2023-02-23T02:07:18.234Z,71.36
2023-02-23T02:10:11.308Z,71.41
2023-02-23T02:12:41.502Z,71.01
2023-02-23T02:15:17.703Z,70.88
2023-02-23T02:18:09.464Z,70.70
2023-02-23T02:21:16.620Z,70.98
2023-02-23T02:24:08.595Z,71.08
2023-02-23T02:27:05.278Z,70.45
2023-02-23T02:30:13.661Z,70.57
2023-02-23T02:33:23.503Z,70.69
2023-02-23T02:36:32.508Z,70.45
2023-02-23T02:39:24.030Z,70.57
2023-02-23T02:42:13.477Z,70.39
2023-02-23T02:45:16.271Z,70.56
2023-02-23T02:47:57.396Z,71.06
2023-02-23T02:50:43.096Z,71.25
2023-02-23T02:53:18.483Z,71.38
2023-02-23T02:55:48.378Z,71.22
2023-02-23T02:58:17.925Z,71.42
2023-02-23T03:01:09.389Z,71.63
2023-02-23T03:03:59.670Z,71.73
2023-02-23T03:06:57.326Z,71.65
2023-02-23T03:09:47.156Z,72.11
2023-02-23T03:13:02.631Z,72.15
2023-02-23T03:16:31.578Z,72.09
2023-02-23T03:19:36.029Z,72.78
2023-02-23T03:22:31.031Z,72.25
2023-02-23T03:25:28.709Z,72.47
2023-02-23T03:28:33.757Z,72.77
2023-02-23T03:31:42.941Z,72.92
2023-02-23T03:34:40.716Z,72.86
2023-02-23T03:37:46.860Z,72.44
2023-02-23T03:40:46.189Z,72.45
2023-02-23T03:43:45.715Z,72.21
2023-02-23T03:46:36.172Z,72.17
2023-02-23T03:49:28.434Z,72.01
2023-02-23T03:52:28.500Z,70.82
2023-02-23T03:55:20.275Z,70.74
2023-02-23T03:58:12.079Z,70.79
2023-02-23T04:01:05.378Z,70.72
2023-02-23T04:03:58.294Z,70.77
2023-02-23T04:06:50.530Z,69.84
2023-02-23T04:09:37.715Z,69.75
2023-02-23T04:12:35.430Z,70.23
2023-02-23T04:15:35.641Z,70.59
2023-02-23T04:18:12.552Z,70.78
2023-02-23T04:20:40.793Z,70.12
2023-02-23T04:23:09.352Z,69.82
2023-02-23T04:25:37.764Z,69.52
2023-02-23T04:28:06.244Z,69.29
2023-02-23T04:30:34.462Z,68.98
2023-02-23T04:33:03.087Z,69.02
2023-02-23T04:35:31.884Z,69.50
2023-02-23T04:38:00.786Z,69.15
2023-02-23T04:40:29.736Z,69.21
2023-02-23T04:42:57.950Z,69.34
2023-02-23T04:45:27.165Z,69.20
2023-02-23T04:47:55.386Z,69.71
2023-02-23T04:50:23.895Z,69.72
2023-02-23T04:52:53.358Z,69.33
2023-02-23T04:55:25.288Z,69.20
2023-02-23T04:58:01.733Z,69.28
2023-02-23T05:00:30.108Z,68.84
2023-02-23T05:02:58.345Z,68.69
2023-02-23T05:05:26.762Z,68.86
2023-02-23T05:07:55.783Z,68.23
2023-02-23T05:10:24.857Z,67.48
2023-02-23T05:12:53.212Z,68.25
2023-02-23T05:15:21.999Z,67.99
2023-02-23T05:17:50.297Z,68.07
2023-02-23T05:20:18.565Z,67.93
2023-02-23T05:22:46.725Z,68.22
2023-02-23T05:25:14.872Z,68.73
2023-02-23T05:27:43.088Z,68.86
2023-02-23T05:30:11.944Z,69.55
2023-02-23T05:32:40.154Z,69.49
2023-02-23T05:35:09.131Z,68.98
2023-02-23T05:37:37.320Z,69.43
2023-02-23T05:40:06.191Z,69.73
2023-02-23T05:42:34.301Z,68.97
2023-02-23T05:45:02.405Z,69.48
2023-02-23T05:47:32.595Z,69.59
2023-02-23T05:50:01.251Z,69.50
2023-02-23T05:52:29.330Z,69.76
2023-02-23T05:54:57.706Z,69.35
2023-02-23T05:57:25.983Z,69.49
2023-02-23T05:59:54.254Z,69.11
2023-02-23T06:02:22.706Z,69.36
2023-02-23T06:04:51.237Z,69.04
2023-02-23T06:07:19.404Z,69.23
2023-02-23T06:09:47.567Z,69.06
2023-02-23T06:12:15.701Z,69.30
2023-02-23T06:14:43.834Z,68.31
2023-02-23T06:17:12.087Z,68.71
2023-02-23T06:19:40.215Z,68.98
2023-02-23T06:22:08.720Z,68.85
2023-02-23T06:24:37.127Z,68.88
2023-02-23T06:27:05.496Z,68.65
2023-02-23T06:29:33.654Z,68.08
2023-02-23T06:32:01.926Z,67.55
2023-02-23T06:34:30.616Z,67.33
2023-02-23T06:37:00.350Z,66.87
2023-02-23T06:39:28.911Z,66.72
2023-02-23T06:41:57.304Z,66.42
2023-02-23T06:44:25.690Z,66.05
2023-02-23T06:46:54.680Z,66.05
2023-02-23T06:49:23.257Z,66.84
2023-02-23T06:51:51.434Z,66.35
2023-02-23T06:54:19.710Z,66.32
2023-02-23T06:56:47.885Z,66.06
2023-02-23T06:59:16.363Z,65.51
2023-02-23T07:01:44.957Z,65.90
2023-02-23T07:04:16.256Z,65.97
2023-02-23T07:06:44.920Z,65.86
2023-02-23T07:09:13.153Z,65.14
2023-02-23T07:11:42.247Z,64.50
2023-02-23T07:14:21.456Z,64.64
2023-02-23T07:16:54.866Z,64.86
2023-02-23T07:19:23.600Z,64.70
2023-02-23T07:21:51.836Z,64.82
2023-02-23T07:24:20.215Z,64.74
2023-02-23T07:26:49.607Z,65.09
2023-02-23T07:29:18.396Z,64.28
2023-02-23T07:31:46.978Z,63.99
2023-02-23T07:34:16.075Z,63.86
2023-02-23T07:36:44.557Z,63.94
2023-02-23T07:39:13.145Z,63.32
2023-02-23T07:41:41.623Z,63.51
2023-02-23T07:44:19.393Z,63.35
2023-02-23T07:46:47.786Z,63.20
2023-02-23T07:49:15.920Z,62.75
2023-02-23T07:51:44.045Z,63.00
2023-02-23T07:54:12.337Z,63.09
2023-02-23T07:56:40.503Z,62.29
2023-02-23T07:59:08.674Z,61.25
2023-02-23T08:01:37.154Z,60.55
2023-02-23T08:04:05.712Z,60.28
2023-02-23T08:06:34.010Z,60.13
2023-02-23T08:09:04.538Z,59.83
2023-02-23T08:11:33.025Z,60.22
2023-02-23T08:14:01.298Z,59.61
2023-02-23T08:16:31.728Z,59.60
2023-02-23T08:19:01.441Z,59.81
2023-02-23T08:21:30.686Z,59.50
2023-02-23T08:23:59.428Z,58.68
2023-02-23T08:26:28.004Z,58.43
2023-02-23T08:28:56.481Z,58.67
2023-02-23T08:31:25.467Z,58.42
2023-02-23T08:33:54.440Z,58.61
2023-02-23T08:36:25.200Z,57.69
2023-02-23T08:38:57.674Z,57.81
2023-02-23T08:41:26.456Z,57.80
2023-02-23T08:43:54.941Z,58.17
2023-02-23T08:46:23.145Z,57.82
2023-02-23T08:48:51.495Z,57.80
2023-02-23T08:51:20.025Z,57.93
2023-02-23T08:53:48.559Z,57.72
2023-02-23T08:56:17.038Z,58.04
2023-02-23T08:58:45.523Z,58.13
2023-02-23T09:01:22.644Z,57.41
2023-02-23T09:03:50.983Z,57.69
2023-02-23T09:06:21.476Z,57.59
2023-02-23T09:08:50.496Z,57.25
2023-02-23T09:11:19.158Z,57.01
2023-02-23T09:13:47.867Z,57.30
2023-02-23T09:16:16.599Z,57.35
2023-02-23T09:18:44.835Z,57.16
2023-02-23T09:21:22.483Z,57.33
2023-02-23T09:23:53.291Z,56.89
2023-02-23T09:26:23.202Z,56.90
2023-02-23T09:28:51.654Z,56.78
2023-02-23T09:31:23.083Z,57.00
2023-02-23T09:33:55.046Z,57.18
2023-02-23T09:36:25.492Z,57.13
2023-02-23T09:38:57.278Z,56.68
2023-02-23T09:41:50.687Z,56.77
2023-02-23T09:44:45.469Z,57.00
2023-02-23T09:47:40.824Z,56.87
2023-02-23T09:50:22.857Z,56.82
2023-02-23T09:53:03.622Z,56.75
2023-02-23T09:55:33.009Z,56.77
2023-02-23T09:58:14.587Z,56.78
2023-02-23T10:00:48.087Z,56.98
2023-02-23T10:03:34.592Z,56.67
2023-02-23T10:06:09.132Z,56.71
2023-02-23T10:08:51.351Z,56.89
2023-02-23T10:11:56.422Z,56.84
2023-02-23T10:14:39.996Z,56.83
2023-02-23T10:17:25.812Z,56.43
2023-02-23T10:20:06.556Z,56.62
2023-02-23T10:22:36.206Z,55.88
2023-02-23T10:25:18.348Z,55.93
2023-02-23T10:27:49.784Z,56.13
2023-02-23T10:30:23.298Z,56.13
2023-02-23T10:33:06.318Z,55.82
2023-02-23T10:35:34.724Z,55.67
2023-02-23T10:38:03.184Z,55.89
2023-02-23T10:40:35.859Z,55.71
2023-02-23T10:43:04.353Z,55.91
2023-02-23T10:45:39.786Z,55.69
2023-02-23T10:48:17.031Z,55.83
2023-02-23T10:50:55.694Z,55.56
2023-02-23T10:53:27.760Z,55.83
2023-02-23T10:56:02.492Z,55.82
2023-02-23T10:58:31.781Z,55.47
2023-02-23T11:01:02.797Z,55.49
2023-02-23T11:03:45.711Z,55.84
2023-02-23T11:06:31.623Z,55.76
2023-02-23T11:09:33.143Z,55.58
2023-02-23T11:12:22.552Z,55.42
2023-02-23T11:14:53.362Z,55.99
2023-02-23T11:17:33.976Z,55.86
2023-02-23T11:20:23.316Z,55.75
2023-02-23T11:22:52.534Z,55.29
2023-02-23T11:25:29.397Z,55.03
2023-02-23T11:27:59.413Z,55.39
2023-02-23T11:30:43.130Z,55.00
2023-02-23T11:33:17.705Z,54.80
2023-02-23T11:35:46.840Z,55.20
2023-02-23T11:38:27.793Z,55.28
2023-02-23T11:41:00.322Z,55.22
2023-02-23T11:43:31.160Z,55.51
2023-02-23T11:46:03.687Z,54.92
2023-02-23T11:48:54.235Z,55.08
2023-02-23T11:51:28.861Z,54.89
2023-02-23T11:53:58.145Z,54.92
2023-02-23T11:56:28.960Z,54.75
2023-02-23T11:59:07.585Z,54.70
2023-02-23T12:01:44.860Z,55.10
2023-02-23T12:04:34.008Z,55.12
2023-02-23T12:07:20.974Z,55.52
2023-02-23T12:10:01.000Z,55.35
2023-02-23T12:12:31.655Z,55.28
2023-02-23T12:15:11.849Z,55.14
2023-02-23T12:17:51.183Z,55.45
2023-02-23T12:20:27.083Z,55.21
2023-02-23T12:23:00.121Z,55.20
2023-02-23T12:25:46.489Z,54.47
2023-02-23T12:28:32.414Z,54.38
2023-02-23T12:31:07.412Z,54.72
2023-02-23T12:33:40.770Z,53.90
2023-02-23T12:36:26.399Z,54.24
2023-02-23T12:39:22.102Z,54.53
2023-02-23T12:41:53.232Z,54.72
2023-02-23T12:44:37.863Z,53.83
2023-02-23T12:47:44.553Z,54.23
2023-02-23T12:50:27.873Z,54.23
2023-02-23T12:53:42.391Z,53.83
2023-02-23T12:56:44.290Z,53.65
2023-02-23T12:59:47.222Z,53.13
2023-02-23T13:02:51.235Z,53.31
2023-02-23T13:05:31.498Z,53.21
2023-02-23T13:08:13.880Z,53.45
2023-02-23T13:10:50.679Z,53.08
2023-02-23T13:13:24.780Z,52.94
2023-02-23T13:16:00.050Z,53.20
2023-02-23T13:18:38.551Z,52.89
2023-02-23T13:21:42.094Z,53.29
2023-02-23T13:24:19.551Z,53.25
2023-02-23T13:27:10.454Z,52.99
2023-02-23T13:29:42.150Z,53.13
2023-02-23T13:32:22.404Z,53.52
2023-02-23T13:34:56.518Z,53.93
2023-02-23T13:37:35.099Z,54.04
2023-02-23T13:40:24.963Z,54.27
2023-02-23T13:43:03.132Z,53.82
2023-02-23T13:45:43.530Z,53.49
2023-02-23T13:48:24.713Z,53.22
2023-02-23T13:51:03.296Z,53.28
2023-02-23T13:53:59.963Z,53.56
2023-02-23T13:56:31.472Z,53.48
2023-02-23T13:59:10.425Z,53.02
2023-02-23T14:01:43.914Z,53.28
2023-02-23T14:04:29.603Z,53.51
2023-02-23T14:07:26.586Z,53.15
2023-02-23T14:09:59.076Z,53.25
2023-02-23T14:12:43.823Z,53.05
2023-02-23T14:15:25.472Z,52.72
2023-02-23T14:18:25.439Z,53.33
2023-02-23T14:21:25.868Z,53.03
2023-02-23T14:24:05.301Z,52.82
2023-02-23T14:26:33.370Z,53.20
2023-02-23T14:29:22.537Z,53.32
2023-02-23T14:31:57.046Z,52.98
2023-02-23T14:34:43.360Z,52.74
2023-02-23T14:37:37.133Z,53.00
2023-02-23T14:40:11.360Z,53.10
2023-02-23T14:42:41.058Z,53.31
2023-02-23T14:45:30.736Z,52.90
2023-02-23T14:48:07.814Z,53.03
2023-02-23T14:50:37.681Z,53.28
2023-02-23T14:53:18.875Z,53.41
2023-02-23T14:55:47.183Z,53.59
2023-02-23T14:58:28.933Z,53.34
2023-02-23T15:00:57.352Z,53.69
2023-02-23T15:03:25.935Z,53.62
2023-02-23T15:06:00.116Z,53.90
2023-02-23T15:08:30.991Z,54.04
2023-02-23T15:11:06.956Z,53.97
2023-02-23T15:13:42.794Z,54.08
2023-02-23T15:16:24.441Z,54.15
2023-02-23T15:18:53.581Z,54.24
2023-02-23T15:21:23.880Z,54.28
2023-02-23T15:24:14.614Z,54.39
2023-02-23T15:26:43.917Z,54.72
2023-02-23T15:29:15.044Z,54.84
2023-02-23T15:31:55.646Z,54.75
2023-02-23T15:34:28.020Z,54.85
2023-02-23T15:37:09.061Z,55.24
2023-02-23T15:39:46.145Z,54.93
2023-02-23T15:42:18.410Z,55.16
2023-02-23T15:44:55.906Z,55.22
2023-02-23T15:47:28.671Z,55.03
2023-02-23T15:50:16.468Z,55.03
2023-02-23T15:52:51.521Z,55.05
2023-02-23T15:55:31.708Z,55.13
2023-02-23T15:58:02.238Z,55.21
2023-02-23T16:00:41.929Z,54.80
2023-02-23T16:03:32.344Z,54.86
2023-02-23T16:06:05.666Z,55.03
2023-02-23T16:08:36.843Z,54.90
2023-02-23T16:11:19.341Z,54.97
2023-02-23T16:13:51.726Z,55.17
2023-02-23T16:16:25.551Z,55.31
2023-02-23T16:19:01.620Z,55.03
2023-02-23T16:21:31.786Z,55.48
2023-02-23T16:24:06.482Z,55.29
2023-02-23T16:26:47.488Z,55.05
2023-02-23T16:29:26.322Z,55.21
2023-02-23T16:32:02.972Z,55.19
2023-02-23T16:34:37.375Z,55.36
2023-02-23T16:37:23.199Z,55.44
2023-02-23T16:39:51.986Z,55.66
2023-02-23T16:42:28.654Z,55.83
2023-02-23T16:44:57.762Z,55.68
2023-02-23T16:47:41.279Z,55.70
2023-02-23T16:50:24.517Z,55.79
2023-02-23T16:52:53.722Z,55.82
2023-02-23T16:55:27.842Z,55.94
2023-02-23T16:58:02.127Z,55.91
2023-02-23T17:00:33.607Z,56.07
2023-02-23T17:03:02.488Z,55.95
2023-02-23T17:05:30.856Z,55.96
2023-02-23T17:07:59.320Z,56.00
2023-02-23T17:10:33.344Z,55.97
2023-02-23T17:13:07.873Z,56.02
2023-02-23T17:15:38.850Z,56.12
2023-02-23T17:18:07.593Z,56.30
2023-02-23T17:20:35.660Z,56.12
2023-02-23T17:23:04.289Z,56.27
2023-02-23T17:25:33.136Z,56.00
2023-02-23T17:28:02.039Z,56.13
2023-02-23T17:30:31.116Z,56.19
2023-02-23T17:33:00.324Z,56.46
2023-02-23T17:35:29.209Z,56.37
2023-02-23T17:37:57.479Z,56.24
2023-02-23T17:40:27.652Z,56.26
2023-02-23T17:42:59.257Z,56.33
2023-02-23T17:45:28.548Z,56.23
2023-02-23T17:47:58.474Z,56.19
2023-02-23T17:50:28.484Z,56.18
2023-02-23T17:52:58.090Z,56.41
2023-02-23T17:55:26.367Z,56.23
2023-02-23T17:57:54.558Z,56.36
2023-02-23T18:00:24.044Z,56.27
2023-02-23T18:02:52.343Z,56.28
2023-02-23T18:05:21.220Z,56.46
2023-02-23T18:07:49.794Z,56.34
2023-02-23T18:10:18.127Z,56.40
2023-02-23T18:12:46.551Z,56.28
2023-02-23T18:15:14.856Z,56.40
2023-02-23T18:17:43.205Z,56.44
2023-02-23T18:20:15.354Z,56.66
2023-02-23T18:22:44.261Z,56.62
2023-02-23T18:25:33.122Z,56.76
2023-02-23T18:28:01.297Z,56.78
2023-02-23T18:30:29.574Z,56.83
2023-02-23T18:33:00.888Z,56.82
2023-02-23T18:35:38.634Z,57.15
2023-02-23T18:38:11.190Z,57.16
2023-02-23T18:40:40.079Z,57.04
2023-02-23T18:43:10.252Z,57.31
2023-02-23T18:45:38.375Z,57.41
2023-02-23T18:48:12.596Z,57.60
2023-02-23T18:50:41.609Z,57.39
2023-02-23T18:53:11.204Z,58.31
2023-02-23T18:55:40.800Z,57.98
2023-02-23T18:58:08.976Z,57.98
2023-02-23T19:00:42.771Z,57.91
2023-02-23T19:03:12.866Z,58.46
2023-02-23T19:05:50.206Z,58.71
2023-02-23T19:08:19.492Z,58.72
2023-02-23T19:10:48.679Z,58.97
2023-02-23T19:13:22.119Z,59.21
2023-02-23T19:15:53.617Z,59.58
2023-02-23T19:18:22.826Z,60.27
2023-02-23T19:20:55.712Z,60.86
2023-02-23T19:23:24.183Z,61.39
2023-02-23T19:25:52.768Z,61.33
2023-02-23T19:28:22.237Z,62.07
2023-02-23T19:30:50.443Z,61.66
2023-02-23T19:33:18.708Z,62.84
2023-02-23T19:35:47.201Z,62.99
2023-02-23T19:38:17.115Z,63.34
2023-02-23T19:40:46.930Z,63.46
2023-02-23T19:43:15.105Z,63.57
2023-02-23T19:45:46.359Z,63.72
2023-02-23T19:48:16.065Z,63.93
2023-02-23T19:50:48.434Z,63.79
2023-02-23T19:53:17.241Z,64.26
2023-02-23T19:55:45.813Z,64.27
2023-02-23T19:58:14.388Z,64.24
2023-02-23T20:00:42.562Z,64.48
2023-02-23T20:03:11.657Z,64.84
2023-02-23T20:05:44.348Z,64.34
2023-02-23T20:08:12.826Z,64.78
2023-02-23T20:10:42.736Z,64.64
2023-02-23T20:13:11.315Z,64.16
2023-02-23T20:15:39.497Z,64.51
2023-02-23T20:18:07.975Z,64.81
2023-02-23T20:20:38.618Z,64.72
2023-02-23T20:23:07.995Z,64.86
2023-02-23T20:25:36.383Z,65.61
2023-02-23T20:28:08.263Z,65.26
2023-02-23T20:30:37.042Z,65.55
2023-02-23T20:33:06.020Z,65.51
2023-02-23T20:35:34.800Z,66.08
2023-02-23T20:38:04.816Z,65.73
2023-02-23T20:40:33.001Z,66.17
2023-02-23T20:43:01.270Z,67.36
2023-02-23T20:45:29.567Z,67.15
2023-02-23T20:47:57.922Z,66.85
2023-02-23T20:50:29.089Z,67.26
2023-02-23T20:52:57.373Z,67.04
2023-02-23T20:55:27.289Z,67.16
2023-02-23T20:57:56.634Z,67.50
2023-02-23T21:00:28.727Z,67.85
2023-02-23T21:02:57.009Z,67.94
2023-02-23T21:05:28.660Z,67.53
2023-02-23T21:08:02.555Z,68.10
2023-02-23T21:10:32.996Z,68.49
2023-02-23T21:13:01.931Z,68.50
2023-02-23T21:15:31.200Z,68.77
2023-02-23T21:17:59.642Z,69.21
2023-02-23T21:20:28.974Z,68.66
2023-02-23T21:22:57.346Z,68.72
2023-02-23T21:25:27.484Z,68.71
2023-02-23T21:27:56.119Z,68.86
2023-02-23T21:30:28.796Z,68.95
2023-02-23T21:32:59.586Z,69.25
2023-02-23T21:35:28.177Z,69.29
2023-02-23T21:37:57.367Z,69.58
2023-02-23T21:40:25.620Z,70.00
2023-02-23T21:42:54.527Z,69.67
2023-02-23T21:45:22.793Z,69.70
2023-02-23T21:47:50.964Z,69.88
2023-02-23T21:50:19.891Z,69.98
2023-02-23T21:52:50.575Z,70.09
2023-02-23T21:55:22.524Z,69.93
2023-02-23T21:57:52.261Z,70.30
2023-02-23T22:00:21.892Z,70.30
2023-02-23T22:02:51.260Z,70.40
2023-02-23T22:05:20.832Z,70.69
2023-02-23T22:07:51.358Z,70.87
2023-02-23T22:10:21.693Z,70.90
2023-02-23T22:12:50.632Z,71.01
2023-02-23T22:15:18.892Z,71.58
2023-02-23T22:17:47.059Z,71.20
2023-02-23T22:20:19.638Z,71.78
2023-02-23T22:22:50.670Z,71.61
2023-02-23T22:25:20.523Z,72.09
2023-02-23T22:27:48.786Z,71.88
2023-02-23T22:30:20.417Z,72.14
2023-02-23T22:32:49.683Z,72.17
2023-02-23T22:35:18.714Z,72.50
2023-02-23T22:37:46.989Z,72.46
2023-02-23T22:40:17.071Z,72.89
2023-02-23T22:42:48.622Z,72.96
2023-02-23T22:45:18.957Z,73.11
2023-02-23T22:47:47.376Z,72.86
2023-02-23T22:50:19.311Z,72.88
2023-02-23T22:52:47.718Z,73.14
2023-02-23T22:55:16.299Z,73.38
2023-02-23T22:57:46.204Z,73.55
2023-02-23T23:00:18.753Z,73.69
2023-02-23T23:02:47.051Z,73.49
2023-02-23T23:05:16.041Z,73.44
2023-02-23T23:07:46.991Z,73.38
2023-02-23T23:10:17.699Z,73.55
2023-02-23T23:12:47.015Z,73.23
2023-02-23T23:15:19.339Z,73.61
2023-02-23T23:17:50.331Z,73.58
2023-02-23T23:20:25.861Z,73.68
2023-02-23T23:22:57.422Z,73.64
2023-02-23T23:25:27.171Z,73.43
2023-02-23T23:27:56.328Z,73.71
2023-02-23T23:30:31.158Z,73.63
2023-02-23T23:33:01.068Z,73.74
2023-02-23T23:35:29.347Z,73.92
2023-02-23T23:37:57.629Z,73.98
2023-02-23T23:40:25.908Z,73.92
2023-02-23T23:42:55.618Z,74.27
2023-02-23T23:45:27.661Z,74.22
2023-02-23T23:47:55.855Z,74.15
2023-02-23T23:50:27.536Z,74.65
2023-02-23T23:52:57.289Z,74.98
2023-02-23T23:55:31.403Z,74.64
2023-02-23T23:58:00.451Z,74.61
